Terminal Aerodrome Forecast
Issued by NWS Riverton, WY

Home | Current Version | Previous Version | Text Only | Print | Product List | Glossary On
Versions: 1 2 3 4 5 6 7 8 9 10 11 12 13
000
FTUS45 KRIW 021135
TAFRIW
TAF
KRIW 021135Z 0212/0312 24006KT P6SM FEW100
     FM022000 24012G20KT P6SM SCT080 SCT110
     FM030100 30011KT P6SM SCT080 SCT110
     FM030600 36011KT P6SM SCT110
     FM031100 VRB06KT P6SM SCT030=

USA.gov is the U.S. government's official web portal to all federal, state and local government web resources and services.